Woodside, NY (11377)

6:37 AM EDT on April 29, 2017 (GMT -0400)
Tony's weather Woodside | | Change Station

Elev 109 ft 40.74 °N, 73.91 °W | Updated 9 seconds ago

Mostly Cloudy
Mostly Cloudy
65.0 °F
Feels Like 65.0 °F
N
0.0
Wind Variable Wind from SSE

Today
High -- | Low -- °F
--% Chance of Precip.
Yesterday
High -- | Low -- °F
Precip. -- in
Pressure 29.97 in
Visibility 9.0 miles
Clouds Few 5000 ft
Scattered Clouds 7500 ft
Mostly Cloudy 12000 ft
Mostly Cloudy 15000 ft
Mostly Cloudy 25000 ft
Dew Point 63 °F
Humidity 93%
Rainfall 0.09 in
Snow Depth Not available.
5:56 AM 7:50 PM
Waxing Crescent, 12% visible
SPECI KLGA 291026Z 25005KT 9SM FEW050 SCT075 BKN120 BKN150 BKN250 20/17 A2997 RMK AO2 LTG DSNT E AND SE RAE00 TSE22 PRESRR OCNL LTGICCC DSNT E-SE CB DSNT E-SE P0000 T02000172
Pressure 29.97 in
Visibility 9.0 miles
Clouds Few 5000 ft
Scattered Clouds 7500 ft
Mostly Cloudy 12000 ft
Mostly Cloudy 15000 ft
Mostly Cloudy 25000 ft
Dew Point 63 °F
Humidity 93%
Rainfall 0.09 in
Snow Depth Not available.
5:56 AM 7:50 PM
Waxing Crescent, 12% visible
SPECI KLGA 291026Z 25005KT 9SM FEW050 SCT075 BKN120 BKN150 BKN250 20/17 A2997 RMK AO2 LTG DSNT E AND SE RAE00 TSE22 PRESRR OCNL LTGICCC DSNT E-SE CB DSNT E-SE P0000 T02000172

Get Severe Weather Alerts

Thanks for signing up!

Be on the lookout for a verification email in your inbox.

You'll start receiving the daily forecast at 8 AM.

×

10-Day Weather Forecast

Almanac

Astronomy

Apr. 29, 2017 Rise Set
Actual Time
Civil Twilight
Nautical Twilight
Astronomical Twilight
Moon
Length of Visible Light
Length of Day
Tomorrow will be .
, % of the Moon is Illuminated

Today's Extremes

State Highs State Lows

Community

WunderPhotos

WunderBlog® & News

Nearby

Air Quality

  Air Quality AQ Index Pollutant
Not available.

Snow Depth

Station Depth Elevation

Earthquake Activity

City Distance Mag. Time & Date
Minimum magnitude displayed is 2.5.

Coastal Water Temperatures

Place Temperature

Stations

Nearby Weather Stations

Station Location Temp. Windchill Dew Point Humidity Wind Precip. Elev Updated Type
                   

Watches & Warnings

There are currently no watches in effect.